sensor_id;sensor_type;location;lat;lon;timestamp;pressure;altitude;pressure_sealevel;temperature;humidity
78839;BME280;68405;47.190;27.558;2023-04-01T00:00:19;98679.86;;;6.64;71.16
78839;BME280;68405;47.190;27.558;2023-04-01T00:03:11;98676.58;;;6.59;71.93
78839;BME280;68405;47.190;27.558;2023-04-01T00:05:43;98668.80;;;6.59;71.90
78839;BME280;68405;47.190;27.558;2023-04-01T00:08:15;98664.92;;;6.61;71.70
78839;BME280;68405;47.190;27.558;2023-04-01T00:10:47;98658.55;;;6.66;71.09
78839;BME280;68405;47.190;27.558;2023-04-01T00:13:19;98659.48;;;6.68;71.23
78839;BME280;68405;47.190;27.558;2023-04-01T00:15:51;98657.25;;;6.69;71.22
78839;BME280;68405;47.190;27.558;2023-04-01T00:18:23;98655.01;;;6.64;71.37
78839;BME280;68405;47.190;27.558;2023-04-01T00:20:55;98650.59;;;6.58;71.24
78839;BME280;68405;47.190;27.558;2023-04-01T00:23:27;98644.80;;;6.51;71.42
78839;BME280;68405;47.190;27.558;2023-04-01T00:26:00;98639.10;;;6.47;71.19
78839;BME280;68405;47.190;27.558;2023-04-01T00:28:33;98641.21;;;6.45;71.61
78839;BME280;68405;47.190;27.558;2023-04-01T00:31:08;98640.00;;;6.45;71.35
78839;BME280;68405;47.190;27.558;2023-04-01T00:33:40;98636.94;;;6.45;71.48
78839;BME280;68405;47.190;27.558;2023-04-01T00:36:13;98635.59;;;6.39;71.82
78839;BME280;68405;47.190;27.558;2023-04-01T00:38:45;98632.81;;;6.30;71.57
78839;BME280;68405;47.190;27.558;2023-04-01T00:41:18;98632.63;;;6.21;71.73
78839;BME280;68405;47.190;27.558;2023-04-01T00:43:52;98638.48;;;6.16;72.17
78839;BME280;68405;47.190;27.558;2023-04-01T00:46:24;98633.62;;;6.12;72.05
78839;BME280;68405;47.190;27.558;2023-04-01T00:48:56;98634.75;;;6.10;71.89
78839;BME280;68405;47.190;27.558;2023-04-01T00:51:31;98631.77;;;6.07;71.80
78839;BME280;68405;47.190;27.558;2023-04-01T00:54:06;98624.10;;;5.99;71.99
78839;BME280;68405;47.190;27.558;2023-04-01T00:56:45;98619.71;;;5.87;72.04
78839;BME280;68405;47.190;27.558;2023-04-01T00:59:23;98616.04;;;5.73;72.11
78839;BME280;68405;47.190;27.558;2023-04-01T01:01:56;98607.00;;;5.66;71.96
78839;BME280;68405;47.190;27.558;2023-04-01T01:04:29;98601.58;;;5.63;72.62
78839;BME280;68405;47.190;27.558;2023-04-01T01:07:14;98599.95;;;5.65;72.77
78839;BME280;68405;47.190;27.558;2023-04-01T01:09:51;98598.73;;;5.66;72.64
78839;BME280;68405;47.190;27.558;2023-04-01T01:12:31;98599.11;;;5.64;72.55
78839;BME280;68405;47.190;27.558;2023-04-01T01:15:15;98601.45;;;5.61;72.63
78839;BME280;68405;47.190;27.558;2023-04-01T01:17:57;98601.11;;;5.57;72.51
78839;BME280;68405;47.190;27.558;2023-04-01T01:24:05;98589.04;;;5.53;72.35
78839;BME280;68405;47.190;27.558;2023-04-01T01:27:00;98585.28;;;5.52;72.93
78839;BME280;68405;47.190;27.558;2023-04-01T01:30:02;98577.38;;;5.46;72.90
78839;BME280;68405;47.190;27.558;2023-04-01T01:33:15;98577.54;;;5.41;72.70
78839;BME280;68405;47.190;27.558;2023-04-01T01:35:57;98570.11;;;5.32;72.94
78839;BME280;68405;47.190;27.558;2023-04-01T01:38:34;98570.31;;;5.26;72.83
78839;BME280;68405;47.190;27.558;2023-04-01T01:41:08;98575.25;;;5.22;72.88
78839;BME280;68405;47.190;27.558;2023-04-01T01:43:42;98571.05;;;5.20;73.13
78839;BME280;68405;47.190;27.558;2023-04-01T01:46:18;98576.19;;;5.14;73.04
78839;BME280;68405;47.190;27.558;2023-04-01T01:48:51;98578.70;;;5.07;72.85
78839;BME280;68405;47.190;27.558;2023-04-01T01:51:24;98574.77;;;5.00;72.77
78839;BME280;68405;47.190;27.558;2023-04-01T01:53:57;98577.31;;;4.96;73.05
78839;BME280;68405;47.190;27.558;2023-04-01T01:56:30;98574.77;;;4.95;72.83
78839;BME280;68405;47.190;27.558;2023-04-01T01:59:05;98571.54;;;4.99;73.62
78839;BME280;68405;47.190;27.558;2023-04-01T02:01:42;98567.74;;;5.05;73.73
78839;BME280;68405;47.190;27.558;2023-04-01T02:04:17;98566.38;;;5.09;73.93
78839;BME280;68405;47.190;27.558;2023-04-01T02:06:53;98563.34;;;5.13;74.03
78839;BME280;68405;47.190;27.558;2023-04-01T02:09:28;98558.13;;;5.14;73.53
78839;BME280;68405;47.190;27.558;2023-04-01T02:12:02;98555.70;;;5.15;73.83
78839;BME280;68405;47.190;27.558;2023-04-01T02:14:39;98559.71;;;5.19;73.52
78839;BME280;68405;47.190;27.558;2023-04-01T02:17:15;98556.73;;;5.26;72.95
78839;BME280;68405;47.190;27.558;2023-04-01T02:19:47;98552.42;;;5.30;73.30
78839;BME280;68405;47.190;27.558;2023-04-01T02:22:21;98555.46;;;5.38;73.33
78839;BME280;68405;47.190;27.558;2023-04-01T02:24:57;98547.11;;;5.40;73.10
78839;BME280;68405;47.190;27.558;2023-04-01T02:27:29;98547.97;;;5.40;73.33
78839;BME280;68405;47.190;27.558;2023-04-01T02:30:01;98544.94;;;5.38;73.13
78839;BME280;68405;47.190;27.558;2023-04-01T02:32:34;98545.35;;;5.41;73.10
78839;BME280;68405;47.190;27.558;2023-04-01T02:35:12;98543.48;;;5.45;72.94
78839;BME280;68405;47.190;27.558;2023-04-01T02:37:48;98540.55;;;5.50;72.80
78839;BME280;68405;47.190;27.558;2023-04-01T02:40:22;98535.19;;;5.56;73.26
78839;BME280;68405;47.190;27.558;2023-04-01T02:42:54;98535.46;;;5.58;73.51
78839;BME280;68405;47.190;27.558;2023-04-01T02:45:26;98534.92;;;5.58;73.13
78839;BME280;68405;47.190;27.558;2023-04-01T02:47:57;98531.70;;;5.57;73.39
78839;BME280;68405;47.190;27.558;2023-04-01T02:50:29;98526.88;;;5.57;73.16
78839;BME280;68405;47.190;27.558;2023-04-01T02:53:01;98521.63;;;5.59;72.77
78839;BME280;68405;47.190;27.558;2023-04-01T02:55:34;98517.81;;;5.60;72.60
78839;BME280;68405;47.190;27.558;2023-04-01T02:58:06;98511.26;;;5.55;72.67
78839;BME280;68405;47.190;27.558;2023-04-01T03:00:37;98507.19;;;5.49;72.79
78839;BME280;68405;47.190;27.558;2023-04-01T03:03:09;98509.49;;;5.42;72.62
78839;BME280;68405;47.190;27.558;2023-04-01T03:05:42;98507.36;;;5.34;73.05
78839;BME280;68405;47.190;27.558;2023-04-01T03:08:14;98505.62;;;5.30;73.32
78839;BME280;68405;47.190;27.558;2023-04-01T03:10:46;98507.21;;;5.29;72.92
78839;BME280;68405;47.190;27.558;2023-04-01T03:13:17;98509.84;;;5.23;72.74
78839;BME280;68405;47.190;27.558;2023-04-01T03:15:49;98508.44;;;5.13;72.81
78839;BME280;68405;47.190;27.558;2023-04-01T03:18:21;98506.70;;;4.98;74.00
78839;BME280;68405;47.190;27.558;2023-04-01T03:20:53;98506.55;;;4.82;74.51
78839;BME280;68405;47.190;27.558;2023-04-01T03:23:25;98505.98;;;4.68;74.43
78839;BME280;68405;47.190;27.558;2023-04-01T03:25:56;98502.55;;;4.62;74.30
78839;BME280;68405;47.190;27.558;2023-04-01T03:28:28;98498.67;;;4.61;74.18
78839;BME280;68405;47.190;27.558;2023-04-01T03:31:00;98492.77;;;4.62;74.64
78839;BME280;68405;47.190;27.558;2023-04-01T03:33:32;98489.09;;;4.59;74.38
78839;BME280;68405;47.190;27.558;2023-04-01T03:36:05;98486.66;;;4.54;74.81
78839;BME280;68405;47.190;27.558;2023-04-01T03:38:37;98486.89;;;4.47;75.10
78839;BME280;68405;47.190;27.558;2023-04-01T03:41:11;98483.80;;;4.36;75.49
78839;BME280;68405;47.190;27.558;2023-04-01T03:43:43;98482.80;;;4.29;75.02
78839;BME280;68405;47.190;27.558;2023-04-01T03:46:18;98482.15;;;4.28;76.00
78839;BME280;68405;47.190;27.558;2023-04-01T03:48:50;98476.33;;;4.28;76.27
78839;BME280;68405;47.190;27.558;2023-04-01T03:51:22;98478.32;;;4.30;75.85
78839;BME280;68405;47.190;27.558;2023-04-01T03:53:54;98475.63;;;4.28;76.00
78839;BME280;68405;47.190;27.558;2023-04-01T03:56:26;98476.78;;;4.24;75.73
78839;BME280;68405;47.190;27.558;2023-04-01T03:58:57;98477.73;;;4.21;76.58
78839;BME280;68405;47.190;27.558;2023-04-01T04:01:29;98474.56;;;4.24;76.13
78839;BME280;68405;47.190;27.558;2023-04-01T04:04:01;98473.35;;;4.30;76.57
78839;BME280;68405;47.190;27.558;2023-04-01T04:06:34;98476.64;;;4.34;76.16
78839;BME280;68405;47.190;27.558;2023-04-01T04:09:05;98476.64;;;4.39;76.15
78839;BME280;68405;47.190;27.558;2023-04-01T04:11:37;98470.39;;;4.41;76.54
78839;BME280;68405;47.190;27.558;2023-04-01T04:14:09;98468.48;;;4.42;76.93
78839;BME280;68405;47.190;27.558;2023-04-01T04:16:40;98462.02;;;4.45;76.51
78839;BME280;68405;47.190;27.558;2023-04-01T04:19:12;98458.98;;;4.54;76.13
78839;BME280;68405;47.190;27.558;2023-04-01T04:21:43;98456.34;;;4.61;76.33
78839;BME280;68405;47.190;27.558;2023-04-01T04:24:15;98460.65;;;4.66;76.51
78839;BME280;68405;47.190;27.558;2023-04-01T04:26:47;98460.73;;;4.69;76.48
78839;BME280;68405;47.190;27.558;2023-04-01T04:29:19;98461.33;;;4.72;76.39
78839;BME280;68405;47.190;27.558;2023-04-01T04:31:52;98460.73;;;4.73;76.49
78839;BME280;68405;47.190;27.558;2023-04-01T04:34:24;98461.75;;;4.79;77.11
78839;BME280;68405;47.190;27.558;2023-04-01T04:36:56;98461.64;;;4.88;76.84
78839;BME280;68405;47.190;27.558;2023-04-01T04:39:28;98459.11;;;4.96;76.48
78839;BME280;68405;47.190;27.558;2023-04-01T04:42:00;98457.32;;;5.03;76.01
78839;BME280;68405;47.190;27.558;2023-04-01T04:44:31;98454.66;;;5.11;75.70
78839;BME280;68405;47.190;27.558;2023-04-01T04:47:04;98455.38;;;5.20;75.89
78839;BME280;68405;47.190;27.558;2023-04-01T04:49:35;98448.71;;;5.28;76.17
78839;BME280;68405;47.190;27.558;2023-04-01T04:52:07;98451.80;;;5.38;75.93
78839;BME280;68405;47.190;27.558;2023-04-01T04:54:39;98453.65;;;5.48;75.96
78839;BME280;68405;47.190;27.558;2023-04-01T04:57:11;98452.25;;;5.58;75.65
78839;BME280;68405;47.190;27.558;2023-04-01T04:59:42;98461.92;;;5.67;75.37
78839;BME280;68405;47.190;27.558;2023-04-01T05:02:14;98466.58;;;5.76;75.12
78839;BME280;68405;47.190;27.558;2023-04-01T05:04:46;98469.52;;;5.85;75.15
78839;BME280;68405;47.190;27.558;2023-04-01T05:07:18;98471.17;;;5.91;75.23
78839;BME280;68405;47.190;27.558;2023-04-01T05:09:49;98463.89;;;5.97;75.72
78839;BME280;68405;47.190;27.558;2023-04-01T05:12:21;98465.60;;;6.03;75.07
78839;BME280;68405;47.190;27.558;2023-04-01T05:14:53;98470.48;;;6.10;75.24
78839;BME280;68405;47.190;27.558;2023-04-01T05:17:25;98464.67;;;6.18;75.21
78839;BME280;68405;47.190;27.558;2023-04-01T05:19:56;98463.20;;;6.24;74.96
78839;BME280;68405;47.190;27.558;2023-04-01T05:22:28;98458.77;;;6.32;74.99
78839;BME280;68405;47.190;27.558;2023-04-01T05:25:00;98462.70;;;6.41;74.78
78839;BME280;68405;47.190;27.558;2023-04-01T05:27:32;98460.48;;;6.50;74.93
78839;BME280;68405;47.190;27.558;2023-04-01T05:30:05;98455.82;;;6.58;74.41
78839;BME280;68405;47.190;27.558;2023-04-01T05:32:37;98455.52;;;6.69;74.28
78839;BME280;68405;47.190;27.558;2023-04-01T05:35:09;98453.75;;;6.74;74.16
78839;BME280;68405;47.190;27.558;2023-04-01T05:37:41;98451.02;;;6.73;74.28
78839;BME280;68405;47.190;27.558;2023-04-01T05:40:13;98449.10;;;6.70;74.24
78839;BME280;68405;47.190;27.558;2023-04-01T05:42:45;98444.73;;;6.75;74.18
78839;BME280;68405;47.190;27.558;2023-04-01T05:45:17;98444.73;;;6.84;74.16
78839;BME280;68405;47.190;27.558;2023-04-01T05:47:49;98444.02;;;6.93;74.10
78839;BME280;68405;47.190;27.558;2023-04-01T05:50:21;98445.98;;;7.07;73.77
78839;BME280;68405;47.190;27.558;2023-04-01T05:52:54;98438.02;;;7.23;73.81
78839;BME280;68405;47.190;27.558;2023-04-01T05:55:25;98437.35;;;7.39;73.54
78839;BME280;68405;47.190;27.558;2023-04-01T05:57:58;98431.44;;;7.51;73.51
78839;BME280;68405;47.190;27.558;2023-04-01T06:00:29;98431.49;;;7.80;73.00
78839;BME280;68405;47.190;27.558;2023-04-01T06:03:01;98431.40;;;8.37;72.63
78839;BME280;68405;47.190;27.558;2023-04-01T06:05:40;98430.67;;;8.97;71.25
78839;BME280;68405;47.190;27.558;2023-04-01T06:08:15;98432.23;;;9.51;70.92
78839;BME280;68405;47.190;27.558;2023-04-01T06:10:57;98435.88;;;10.27;69.79
78839;BME280;68405;47.190;27.558;2023-04-01T06:13:43;98435.36;;;10.76;68.32
78839;BME280;68405;47.190;27.558;2023-04-01T06:16:29;98436.79;;;11.14;68.63
78839;BME280;68405;47.190;27.558;2023-04-01T06:19:16;98432.45;;;11.62;66.79
78839;BME280;68405;47.190;27.558;2023-04-01T06:21:59;98430.05;;;11.89;65.64
78839;BME280;68405;47.190;27.558;2023-04-01T06:24:55;98425.41;;;11.91;65.30
78839;BME280;68405;47.190;27.558;2023-04-01T06:27:47;98427.55;;;11.77;63.40
78839;BME280;68405;47.190;27.558;2023-04-01T06:30:35;98435.52;;;11.57;63.86
78839;BME280;68405;47.190;27.558;2023-04-01T06:33:37;98434.02;;;11.45;64.75
78839;BME280;68405;47.190;27.558;2023-04-01T06:36:18;98434.79;;;11.53;64.02
78839;BME280;68405;47.190;27.558;2023-04-01T06:39:17;98433.94;;;11.69;63.76
78839;BME280;68405;47.190;27.558;2023-04-01T06:45:19;98434.27;;;12.25;63.77
78839;BME280;68405;47.190;27.558;2023-04-01T06:48:10;98431.08;;;12.55;64.58
78839;BME280;68405;47.190;27.558;2023-04-01T06:50:51;98424.48;;;12.79;63.71
78839;BME280;68405;47.190;27.558;2023-04-01T06:53:31;98420.71;;;12.80;63.54
78839;BME280;68405;47.190;27.558;2023-04-01T06:56:11;98425.52;;;12.73;63.62
78839;BME280;68405;47.190;27.558;2023-04-01T06:58:49;98426.52;;;12.64;63.79
78839;BME280;68405;47.190;27.558;2023-04-01T07:01:26;98426.55;;;12.52;64.01
78839;BME280;68405;47.190;27.558;2023-04-01T07:04:02;98429.11;;;12.40;63.90
78839;BME280;68405;47.190;27.558;2023-04-01T07:06:41;98430.84;;;12.27;64.37
78839;BME280;68405;47.190;27.558;2023-04-01T07:09:20;98430.76;;;12.22;64.41
78839;BME280;68405;47.190;27.558;2023-04-01T07:11:56;98430.09;;;12.11;64.29
78839;BME280;68405;47.190;27.558;2023-04-01T07:14:34;98426.16;;;11.91;64.45
78839;BME280;68405;47.190;27.558;2023-04-01T07:17:14;98427.67;;;11.72;64.93
78839;BME280;68405;47.190;27.558;2023-04-01T07:19:50;98429.36;;;11.56;65.15
78839;BME280;68405;47.190;27.558;2023-04-01T07:22:29;98430.55;;;11.42;65.32
78839;BME280;68405;47.190;27.558;2023-04-01T07:25:05;98432.92;;;11.20;65.70
78839;BME280;68405;47.190;27.558;2023-04-01T07:27:42;98437.50;;;10.99;65.75
78839;BME280;68405;47.190;27.558;2023-04-01T07:30:17;98432.02;;;10.71;66.36
78839;BME280;68405;47.190;27.558;2023-04-01T07:32:54;98427.55;;;10.49;66.79
78839;BME280;68405;47.190;27.558;2023-04-01T07:35:35;98422.34;;;10.30;67.16
78839;BME280;68405;47.190;27.558;2023-04-01T07:38:18;98420.73;;;10.15;67.59
78839;BME280;68405;47.190;27.558;2023-04-01T07:40:59;98421.05;;;10.13;67.63
78839;BME280;68405;47.190;27.558;2023-04-01T07:43:56;98421.17;;;10.20;67.61
78839;BME280;68405;47.190;27.558;2023-04-01T07:46:44;98419.03;;;10.27;67.26
78839;BME280;68405;47.190;27.558;2023-04-01T07:49:26;98417.00;;;10.36;67.17
78839;BME280;68405;47.190;27.558;2023-04-01T07:51:59;98419.75;;;10.43;66.97
78839;BME280;68405;47.190;27.558;2023-04-01T07:54:37;98414.96;;;10.44;66.86
78839;BME280;68405;47.190;27.558;2023-04-01T07:57:15;98413.53;;;10.48;66.97
78839;BME280;68405;47.190;27.558;2023-04-01T08:00:00;98419.17;;;10.49;66.65
78839;BME280;68405;47.190;27.558;2023-04-01T08:02:48;98421.05;;;10.51;66.60
78839;BME280;68405;47.190;27.558;2023-04-01T08:05:27;98416.34;;;10.51;66.95
78839;BME280;68405;47.190;27.558;2023-04-01T08:08:08;98413.04;;;10.51;66.67
78839;BME280;68405;47.190;27.558;2023-04-01T08:10:49;98407.00;;;10.50;66.58
78839;BME280;68405;47.190;27.558;2023-04-01T08:13:31;98407.12;;;10.54;66.57
78839;BME280;68405;47.190;27.558;2023-04-01T08:16:12;98409.13;;;10.58;67.07
78839;BME280;68405;47.190;27.558;2023-04-01T08:18:59;98409.34;;;10.60;67.51
78839;BME280;68405;47.190;27.558;2023-04-01T08:21:35;98409.26;;;10.59;67.42
78839;BME280;68405;47.190;27.558;2023-04-01T08:24:17;98400.09;;;10.52;67.88
78839;BME280;68405;47.190;27.558;2023-04-01T08:26:55;98392.66;;;10.46;68.15
78839;BME280;68405;47.190;27.558;2023-04-01T08:29:36;98391.56;;;10.37;68.35
78839;BME280;68405;47.190;27.558;2023-04-01T08:32:12;98386.40;;;10.30;68.62
78839;BME280;68405;47.190;27.558;2023-04-01T08:34:54;98383.20;;;10.29;68.97
78839;BME280;68405;47.190;27.558;2023-04-01T08:37:32;98384.93;;;10.26;69.22
78839;BME280;68405;47.190;27.558;2023-04-01T08:40:25;98383.63;;;10.21;69.19
78839;BME280;68405;47.190;27.558;2023-04-01T08:43:08;98380.25;;;10.16;69.43
78839;BME280;68405;47.190;27.558;2023-04-01T08:45:49;98383.79;;;10.15;70.09
78839;BME280;68405;47.190;27.558;2023-04-01T08:57:49;98372.85;;;10.12;70.74
78839;BME280;68405;47.190;27.558;2023-04-01T09:00:32;98376.27;;;10.07;71.05
78839;BME280;68405;47.190;27.558;2023-04-01T09:03:32;98376.96;;;10.01;70.93
78839;BME280;68405;47.190;27.558;2023-04-01T09:09:09;98372.20;;;9.96;71.31
78839;BME280;68405;47.190;27.558;2023-04-01T09:18:15;98370.45;;;10.24;71.25
78839;BME280;68405;47.190;27.558;2023-04-01T09:24:38;98372.17;;;10.40;71.34
78839;BME280;68405;47.190;27.558;2023-04-01T09:27:19;98372.90;;;10.48;71.01
78839;BME280;68405;47.190;27.558;2023-04-01T09:30:17;98374.87;;;10.56;70.70
78839;BME280;68405;47.190;27.558;2023-04-01T09:33:12;98372.72;;;10.69;70.55
78839;BME280;68405;47.190;27.558;2023-04-01T09:35:50;98369.81;;;10.80;70.31
78839;BME280;68405;47.190;27.558;2023-04-01T09:38:38;98364.31;;;10.85;70.30
78839;BME280;68405;47.190;27.558;2023-04-01T09:41:24;98364.02;;;10.87;70.13
78839;BME280;68405;47.190;27.558;2023-04-01T09:44:14;98361.98;;;10.89;69.84
78839;BME280;68405;47.190;27.558;2023-04-01T09:47:04;98359.55;;;11.01;69.91
78839;BME280;68405;47.190;27.558;2023-04-01T09:50:06;98354.42;;;11.22;69.57
78839;BME280;68405;47.190;27.558;2023-04-01T09:52:50;98349.73;;;11.47;69.40
78839;BME280;68405;47.190;27.558;2023-04-01T09:56:01;98341.96;;;11.63;69.15
78839;BME280;68405;47.190;27.558;2023-04-01T09:59:10;98340.65;;;11.86;69.11
78839;BME280;68405;47.190;27.558;2023-04-01T10:02:07;98337.39;;;12.13;68.97
78839;BME280;68405;47.190;27.558;2023-04-01T10:08:11;98332.02;;;12.49;68.35
78839;BME280;68405;47.190;27.558;2023-04-01T10:11:20;98331.08;;;12.79;67.61
78839;BME280;68405;47.190;27.558;2023-04-01T10:14:32;98331.63;;;13.01;67.04
78839;BME280;68405;47.190;27.558;2023-04-01T10:17:35;98332.68;;;13.14;66.11
78839;BME280;68405;47.190;27.558;2023-04-01T10:20:31;98333.21;;;13.11;65.48
78839;BME280;68405;47.190;27.558;2023-04-01T10:23:41;98332.69;;;13.03;65.96
78839;BME280;68405;47.190;27.558;2023-04-01T10:26:53;98328.14;;;12.99;65.97
78839;BME280;68405;47.190;27.558;2023-04-01T10:32:37;98333.45;;;12.83;65.54
78839;BME280;68405;47.190;27.558;2023-04-01T10:35:56;98334.84;;;12.75;66.05
78839;BME280;68405;47.190;27.558;2023-04-01T10:41:55;98330.05;;;12.66;65.33
78839;BME280;68405;47.190;27.558;2023-04-01T10:51:22;98323.83;;;12.78;65.26
78839;BME280;68405;47.190;27.558;2023-04-01T10:54:20;98321.61;;;12.87;65.00
78839;BME280;68405;47.190;27.558;2023-04-01T10:56:56;98326.83;;;13.08;64.98
78839;BME280;68405;47.190;27.558;2023-04-01T11:13:08;98308.52;;;14.08;61.64
78839;BME280;68405;47.190;27.558;2023-04-01T11:22:31;98299.16;;;13.98;61.72
78839;BME280;68405;47.190;27.558;2023-04-01T11:25:27;98290.63;;;14.00;61.37
78839;BME280;68405;47.190;27.558;2023-04-01T11:28:18;98276.90;;;14.04;60.40
78839;BME280;68405;47.190;27.558;2023-04-01T11:31:11;98276.02;;;14.04;60.50
78839;BME280;68405;47.190;27.558;2023-04-01T11:33:52;98275.33;;;14.08;61.16
78839;BME280;68405;47.190;27.558;2023-04-01T11:36:34;98274.31;;;14.19;59.85
78839;BME280;68405;47.190;27.558;2023-04-01T11:39:17;98269.25;;;14.22;59.98
78839;BME280;68405;47.190;27.558;2023-04-01T11:42:01;98262.16;;;14.28;59.95
78839;BME280;68405;47.190;27.558;2023-04-01T11:44:43;98252.83;;;14.47;60.44
78839;BME280;68405;47.190;27.558;2023-04-01T11:47:47;98259.04;;;14.74;59.57
78839;BME280;68405;47.190;27.558;2023-04-01T11:50:30;98261.14;;;14.90;58.73
78839;BME280;68405;47.190;27.558;2023-04-01T11:53:14;98256.56;;;14.97;59.73
78839;BME280;68405;47.190;27.558;2023-04-01T11:59:11;98265.67;;;15.14;59.02
78839;BME280;68405;47.190;27.558;2023-04-01T12:01:53;98270.81;;;15.05;58.88
78839;BME280;68405;47.190;27.558;2023-04-01T12:05:01;98273.09;;;14.93;58.88
78839;BME280;68405;47.190;27.558;2023-04-01T12:07:55;98269.67;;;14.79;58.83
78839;BME280;68405;47.190;27.558;2023-04-01T12:10:39;98272.66;;;14.64;58.70
78839;BME280;68405;47.190;27.558;2023-04-01T12:13:34;98266.31;;;14.54;59.26
78839;BME280;68405;47.190;27.558;2023-04-01T12:16:09;98265.50;;;14.46;59.15
78839;BME280;68405;47.190;27.558;2023-04-01T12:18:50;98261.42;;;14.38;59.23
78839;BME280;68405;47.190;27.558;2023-04-01T12:21:27;98261.23;;;14.31;59.43
78839;BME280;68405;47.190;27.558;2023-04-01T12:27:34;98257.55;;;14.29;59.63
78839;BME280;68405;47.190;27.558;2023-04-01T12:30:26;98257.08;;;14.35;59.83
78839;BME280;68405;47.190;27.558;2023-04-01T12:36:11;98263.73;;;14.44;59.74
78839;BME280;68405;47.190;27.558;2023-04-01T12:38:55;98266.49;;;14.42;59.79
78839;BME280;68405;47.190;27.558;2023-04-01T12:41:40;98268.52;;;14.41;59.47
78839;BME280;68405;47.190;27.558;2023-04-01T12:44:43;98265.02;;;14.46;60.03
78839;BME280;68405;47.190;27.558;2023-04-01T12:47:48;98261.18;;;14.64;60.05
78839;BME280;68405;47.190;27.558;2023-04-01T12:50:33;98259.98;;;14.82;59.89
78839;BME280;68405;47.190;27.558;2023-04-01T12:53:22;98254.61;;;15.02;59.72
78839;BME280;68405;47.190;27.558;2023-04-01T12:55:57;98257.43;;;15.19;59.26
78839;BME280;68405;47.190;27.558;2023-04-01T13:02:02;98249.52;;;15.35;58.40
78839;BME280;68405;47.190;27.558;2023-04-01T13:04:51;98248.35;;;15.34;57.74
78839;BME280;68405;47.190;27.558;2023-04-01T13:07:47;98246.98;;;15.31;57.85
78839;BME280;68405;47.190;27.558;2023-04-01T13:10:44;98244.91;;;15.40;58.35
78839;BME280;68405;47.190;27.558;2023-04-01T13:13:34;98236.40;;;15.48;57.64
78839;BME280;68405;47.190;27.558;2023-04-01T13:16:13;98231.79;;;15.51;57.70
78839;BME280;68405;47.190;27.558;2023-04-01T13:18:56;98230.61;;;15.59;57.15
78839;BME280;68405;47.190;27.558;2023-04-01T13:21:42;98225.45;;;15.60;57.13
78839;BME280;68405;47.190;27.558;2023-04-01T13:24:29;98226.31;;;15.64;57.26
78839;BME280;68405;47.190;27.558;2023-04-01T13:27:05;98232.36;;;15.68;57.06
78839;BME280;68405;47.190;27.558;2023-04-01T13:29:43;98231.19;;;15.69;57.21
78839;BME280;68405;47.190;27.558;2023-04-01T13:32:32;98231.98;;;15.72;57.07
78839;BME280;68405;47.190;27.558;2023-04-01T13:35:24;98233.90;;;15.74;57.19
78839;BME280;68405;47.190;27.558;2023-04-01T13:38:27;98234.13;;;15.78;57.06
78839;BME280;68405;47.190;27.558;2023-04-01T13:41:09;98233.70;;;15.77;57.02
78839;BME280;68405;47.190;27.558;2023-04-01T13:43:50;98230.57;;;15.68;56.49
78839;BME280;68405;47.190;27.558;2023-04-01T13:46:41;98228.66;;;15.57;56.54
78839;BME280;68405;47.190;27.558;2023-04-01T13:49:35;98222.19;;;15.53;57.15
78839;BME280;68405;47.190;27.558;2023-04-01T13:55:48;98223.31;;;15.52;56.47
78839;BME280;68405;47.190;27.558;2023-04-01T14:01:31;98225.75;;;15.26;56.70
78839;BME280;68405;47.190;27.558;2023-04-01T14:04:38;98226.47;;;15.19;56.36
78839;BME280;68405;47.190;27.558;2023-04-01T14:07:29;98224.70;;;15.08;56.59
78839;BME280;68405;47.190;27.558;2023-04-01T14:10:10;98228.54;;;15.02;56.13
78839;BME280;68405;47.190;27.558;2023-04-01T14:12:56;98226.93;;;14.91;56.08
78839;BME280;68405;47.190;27.558;2023-04-01T14:15:45;98227.55;;;14.85;56.29
78839;BME280;68405;47.190;27.558;2023-04-01T14:18:39;98220.18;;;14.79;56.09
78839;BME280;68405;47.190;27.558;2023-04-01T14:21:31;98216.20;;;14.70;55.25
78839;BME280;68405;47.190;27.558;2023-04-01T14:24:35;98217.78;;;14.60;55.77
78839;BME280;68405;47.190;27.558;2023-04-01T14:27:31;98210.88;;;14.50;55.70
78839;BME280;68405;47.190;27.558;2023-04-01T14:30:34;98207.61;;;14.43;55.87
78839;BME280;68405;47.190;27.558;2023-04-01T14:33:19;98205.79;;;14.34;56.10
78839;BME280;68405;47.190;27.558;2023-04-01T14:36:04;98207.36;;;14.25;56.21
78839;BME280;68405;47.190;27.558;2023-04-01T14:38:58;98207.79;;;14.17;56.26
78839;BME280;68405;47.190;27.558;2023-04-01T14:41:41;98207.92;;;14.11;56.52
78839;BME280;68405;47.190;27.558;2023-04-01T14:50:19;98215.52;;;13.94;57.23
78839;BME280;68405;47.190;27.558;2023-04-01T14:52:59;98214.36;;;13.90;57.43
78839;BME280;68405;47.190;27.558;2023-04-01T14:55:52;98215.52;;;13.86;57.48
78839;BME280;68405;47.190;27.558;2023-04-01T14:58:42;98209.98;;;13.83;57.73
78839;BME280;68405;47.190;27.558;2023-04-01T15:01:30;98215.56;;;13.83;57.80
78839;BME280;68405;47.190;27.558;2023-04-01T15:04:18;98213.51;;;13.83;57.76
78839;BME280;68405;47.190;27.558;2023-04-01T15:07:08;98213.53;;;13.80;57.90
78839;BME280;68405;47.190;27.558;2023-04-01T15:09:55;98217.16;;;13.76;58.02
78839;BME280;68405;47.190;27.558;2023-04-01T15:12:36;98216.73;;;13.73;58.31
78839;BME280;68405;47.190;27.558;2023-04-01T15:15:25;98211.85;;;13.70;58.21
78839;BME280;68405;47.190;27.558;2023-04-01T15:18:08;98215.01;;;13.67;58.42
78839;BME280;68405;47.190;27.558;2023-04-01T15:21:11;98212.84;;;13.64;58.48
78839;BME280;68405;47.190;27.558;2023-04-01T15:23:59;98213.75;;;13.66;58.63
78839;BME280;68405;47.190;27.558;2023-04-01T15:26:59;98218.02;;;13.69;58.60
78839;BME280;68405;47.190;27.558;2023-04-01T15:29:42;98217.15;;;13.69;58.64
78839;BME280;68405;47.190;27.558;2023-04-01T15:32:24;98220.68;;;13.68;58.74
78839;BME280;68405;47.190;27.558;2023-04-01T15:35:03;98218.66;;;13.67;58.94
78839;BME280;68405;47.190;27.558;2023-04-01T15:37:48;98221.18;;;13.64;59.09